Check out our new BloomSky Weather System.

Active alerts


No alerts


Thunder radar  blitzortung!


Rain radar more information rain snow radar


Visit our other weather sites:

Template documentation
and downloads

And another site



Weather Underground History page Text

Daily Summary for May 21, 2017 Units:  English    Metric   Both
« Previous Day
Next Day »
Daily Weekly Monthly Yearly Custom
  High: Low: Average:
Temperature: 88.5 °F 72.0 °F 77.3 °F
Dew Point: 77.5 °F 70.2 °F 73.3 °F
Humidity: 98 % 67 % 88 %
Wind Speed: 9.0 mph 0.0 mph 2 mph
Wind Gust: 13.0 mph - -
Wind:- - SSW
Pressure: 30.04 in 29.93 in -
Precipitation: 0.00 in    
Historical Graphs
 
 
Tabular Data for May 21, 2017
Time Temperature Dew Point Pressure Wind Wind Speed Wind Gust Humidity Rainfall Rate (Hourly)
00:02 77.7 °F 76.5 °F 29.93 in Calm   1.0 mph 96 % 0.00 in
00:07 77.7 °F 76.5 °F 29.93 in Calm   1.0 mph 96 % 0.00 in
00:12 77.7 °F 76.5 °F 29.93 in Calm   1.0 mph 96 % 0.00 in
00:17 77.7 °F 76.5 °F 29.94 in Calm   1.0 mph 96 % 0.00 in
00:22 77.5 °F 76.3 °F 29.94 in Calm   1.0 mph 96 % 0.00 in
00:27 77.5 °F 76.3 °F 29.94 in NNW 1.0 mph 2.0 mph 96 % 0.00 in
00:32 77.4 °F 76.1 °F 29.94 in Calm   3.0 mph 96 % 0.00 in
00:37 77.2 °F 75.9 °F 29.94 in Calm   3.0 mph 96 % 0.00 in
00:42 76.8 °F 75.6 °F 29.95 in Calm   3.0 mph 96 % 0.00 in
00:47 76.6 °F 75.4 °F 29.95 in Calm   2.0 mph 96 % 0.00 in
00:52 76.6 °F 75.4 °F 29.95 in NNW 1.0 mph 2.0 mph 96 % 0.00 in
00:57 76.5 °F 75.2 °F 29.95 in Calm   3.0 mph 96 % 0.00 in
01:02 76.3 °F 75.4 °F 29.95 in North 1.0 mph 3.0 mph 97 % 0.00 in
01:07 76.3 °F 75.4 °F 29.95 in NNW 1.0 mph 3.0 mph 97 % 0.00 in
01:12 76.3 °F 75.4 °F 29.95 in Calm   2.0 mph 97 % 0.00 in
01:17 76.3 °F 75.4 °F 29.95 in NNW 1.0 mph 2.0 mph 97 % 0.00 in
01:22 76.3 °F 75.4 °F 29.95 in NNW 2.0 mph 2.0 mph 97 % 0.00 in
01:27 76.1 °F 75.2 °F 29.94 in Calm   2.0 mph 97 % 0.00 in
01:32 75.9 °F 75.0 °F 29.94 in Calm   2.0 mph 97 % 0.00 in
01:37 75.9 °F 75.0 °F 29.94 in Calm   2.0 mph 97 % 0.00 in
01:42 75.9 °F 75.0 °F 29.95 in Calm   2.0 mph 97 % 0.00 in
01:47 76.1 °F 75.2 °F 29.96 in NNE 2.0 mph 2.0 mph 97 % 0.00 in
01:52 76.1 °F 75.2 °F 29.96 in Calm   2.0 mph 97 % 0.00 in
01:57 76.1 °F 75.2 °F 29.96 in Calm   2.0 mph 97 % 0.00 in
02:02 75.9 °F 75.0 °F 29.95 in Calm   2.0 mph 97 % 0.00 in
02:07 76.1 °F 75.2 °F 29.95 in Calm   1.0 mph 97 % 0.00 in
02:12 76.1 °F 75.2 °F 29.95 in Calm   1.0 mph 97 % 0.00 in
02:17 75.9 °F 75.4 °F 29.96 in NW 1.0 mph 4.0 mph 98 % 0.00 in
02:22 75.9 °F 75.0 °F 29.96 in NW 2.0 mph 4.0 mph 97 % 0.00 in
02:27 75.7 °F 74.8 °F 29.96 in Calm   6.0 mph 97 % 0.00 in
02:32 75.4 °F 74.5 °F 29.95 in NNW 1.0 mph 6.0 mph 97 % 0.00 in
02:37 75.4 °F 74.8 °F 29.95 in Calm   6.0 mph 98 % 0.00 in
02:42 75.4 °F 74.8 °F 29.96 in Calm   4.0 mph 98 % 0.00 in
02:48 75.2 °F 74.7 °F 29.96 in Calm   2.0 mph 98 % 0.00 in
02:53 75.0 °F 74.5 °F 29.96 in Calm   2.0 mph 98 % 0.00 in
02:58 75.0 °F 74.5 °F 29.96 in Calm   2.0 mph 98 % 0.00 in
03:03 75.0 °F 74.5 °F 29.96 in Calm   3.0 mph 98 % 0.00 in
03:08 75.0 °F 74.5 °F 29.96 in North 1.0 mph 3.0 mph 98 % 0.00 in
03:13 75.0 °F 74.5 °F 29.97 in WNW 2.0 mph 4.0 mph 98 % 0.00 in
03:18 75.0 °F 74.5 °F 29.97 in NNW 2.0 mph 5.0 mph 98 % 0.00 in
03:23 74.8 °F 74.3 °F 29.97 in Calm   5.0 mph 98 % 0.00 in
03:28 74.7 °F 74.1 °F 29.96 in North 4.0 mph 5.0 mph 98 % 0.00 in
03:33 74.3 °F 73.4 °F 29.96 in ENE 2.0 mph 7.0 mph 97 % 0.00 in
03:38 74.1 °F 73.2 °F 29.96 in NNE 3.0 mph 7.0 mph 97 % 0.00 in
03:43 73.9 °F 73.0 °F 29.96 in Calm   7.0 mph 97 % 0.00 in
03:48 73.8 °F 72.9 °F 29.96 in East 1.0 mph 5.0 mph 97 % 0.00 in
03:53 73.6 °F 73.0 °F 29.95 in East 1.0 mph 4.0 mph 98 % 0.00 in
03:58 73.4 °F 72.9 °F 29.95 in Calm   3.0 mph 98 % 0.00 in
04:03 73.2 °F 72.7 °F 29.95 in Calm   3.0 mph 98 % 0.00 in
04:08 73.2 °F 72.7 °F 29.95 in Calm   2.0 mph 98 % 0.00 in
04:13 73.0 °F 72.5 °F 29.94 in Calm   1.0 mph 98 % 0.00 in
04:18 73.0 °F 72.5 °F 29.94 in NE 1.0 mph 1.0 mph 98 % 0.00 in
04:23 73.0 °F 72.5 °F 29.94 in Calm   1.0 mph 98 % 0.00 in
04:28 73.0 °F 72.5 °F 29.94 in Calm   1.0 mph 98 % 0.00 in
04:33 73.0 °F 72.5 °F 29.94 in Calm   1.0 mph 98 % 0.00 in
04:38 72.9 °F 72.3 °F 29.94 in SSE 1.0 mph 1.0 mph 98 % 0.00 in
04:43 72.9 °F 72.3 °F 29.94 in Calm   1.0 mph 98 % 0.00 in
04:46 72.9 °F 72.3 °F 29.94 in Calm   1.0 mph 98 % 0.00 in
04:51 72.9 °F 72.3 °F 29.95 in Calm   1.0 mph 98 % 0.00 in
04:56 72.9 °F 72.3 °F 29.96 in Calm     98 % 0.00 in
04:57 72.9 °F 72.3 °F 29.96 in Calm     98 % 0.00 in
05:02 72.9 °F 72.3 °F 29.96 in SW 1.0 mph 1.0 mph 98 % 0.00 in
05:07 72.9 °F 72.3 °F 29.96 in NNW 3.0 mph 3.0 mph 98 % 0.00 in
05:12 72.9 °F 72.3 °F 29.97 in Calm   3.0 mph 98 % 0.00 in
05:17 72.9 °F 72.3 °F 29.97 in NW 3.0 mph 4.0 mph 98 % 0.00 in
05:22 72.9 °F 72.3 °F 29.97 in NNE 2.0 mph 6.0 mph 98 % 0.00 in
05:27 72.9 °F 72.3 °F 29.97 in North 3.0 mph 6.0 mph 98 % 0.00 in
05:32 72.7 °F 72.1 °F 29.97 in NW 2.0 mph 6.0 mph 98 % 0.00 in
05:37 72.7 °F 72.1 °F 29.97 in NNW 3.0 mph 6.0 mph 98 % 0.00 in
05:42 72.7 °F 72.1 °F 29.97 in NNW 1.0 mph 6.0 mph 98 % 0.00 in
05:47 72.7 °F 72.1 °F 29.98 in Calm   6.0 mph 98 % 0.00 in
05:52 72.7 °F 72.1 °F 29.98 in Calm   6.0 mph 98 % 0.00 in
05:57 72.7 °F 72.1 °F 29.98 in North 2.0 mph 6.0 mph 98 % 0.00 in
06:02 72.5 °F 72.0 °F 29.97 in NNW 1.0 mph 4.0 mph 98 % 0.00 in
06:07 72.5 °F 72.0 °F 29.98 in North 1.0 mph 4.0 mph 98 % 0.00 in
06:13 72.3 °F 71.8 °F 29.97 in NNW 4.0 mph 7.0 mph 98 % 0.00 in
06:18 72.1 °F 71.6 °F 29.97 in Calm   7.0 mph 98 % 0.00 in
06:23 72.1 °F 71.6 °F 29.98 in North 2.0 mph 7.0 mph 98 % 0.00 in
06:28 72.1 °F 71.6 °F 29.98 in North 1.0 mph 8.0 mph 98 % 0.00 in
06:33 72.0 °F 71.4 °F 29.98 in Calm   8.0 mph 98 % 0.00 in
06:38 72.0 °F 71.4 °F 29.98 in NNE 4.0 mph 8.0 mph 98 % 0.00 in
06:43 72.0 °F 71.4 °F 29.98 in Calm   6.0 mph 98 % 0.00 in
06:48 72.0 °F 71.4 °F 29.99 in Calm   6.0 mph 98 % 0.00 in
06:53 72.1 °F 71.6 °F 29.99 in WNW 2.0 mph 6.0 mph 98 % 0.00 in
06:58 72.1 °F 71.6 °F 29.99 in Calm   4.0 mph 98 % 0.00 in
07:03 72.1 °F 71.6 °F 29.99 in NNW 3.0 mph 4.0 mph 98 % 0.00 in
07:08 72.1 °F 71.6 °F 29.99 in North 2.0 mph 6.0 mph 98 % 0.00 in
07:13 72.1 °F 71.6 °F 30.00 in NW 3.0 mph 6.0 mph 98 % 0.00 in
07:18 72.3 °F 71.8 °F 30.00 in NNW 1.0 mph 9.0 mph 98 % 0.00 in
07:23 72.3 °F 71.8 °F 30.00 in NNW 1.0 mph 9.0 mph 98 % 0.00 in
07:28 72.3 °F 71.8 °F 30.00 in NNW 1.0 mph 9.0 mph 98 % 0.00 in
07:33 72.3 °F 71.8 °F 30.00 in NW 1.0 mph 7.0 mph 98 % 0.00 in
07:38 72.7 °F 72.1 °F 30.01 in WSW 1.0 mph 6.0 mph 98 % 0.00 in
07:43 72.7 °F 72.1 °F 30.01 in NW 1.0 mph 6.0 mph 98 % 0.00 in
07:48 72.9 °F 72.3 °F 30.01 in NNW 1.0 mph 6.0 mph 98 % 0.00 in
07:53 73.0 °F 72.5 °F 30.01 in NNW 2.0 mph 5.0 mph 98 % 0.00 in
07:58 72.9 °F 72.0 °F 30.01 in Calm   6.0 mph 97 % 0.00 in
08:03 73.0 °F 72.1 °F 30.01 in Calm   7.0 mph 97 % 0.00 in
08:08 73.2 °F 72.3 °F 30.02 in NW 2.0 mph 7.0 mph 97 % 0.00 in
08:13 73.4 °F 72.1 °F 30.02 in North 4.0 mph 7.0 mph 96 % 0.00 in
08:18 73.4 °F 72.1 °F 30.02 in North 2.0 mph 7.0 mph 96 % 0.00 in
08:23 73.8 °F 72.3 °F 30.02 in North 1.0 mph 9.0 mph 95 % 0.00 in
08:28 74.1 °F 72.7 °F 30.02 in NW 1.0 mph 9.0 mph 95 % 0.00 in
08:33 74.5 °F 72.7 °F 30.02 in NE 2.0 mph 9.0 mph 94 % 0.00 in
08:38 74.5 °F 72.7 °F 30.03 in North 1.0 mph 6.0 mph 94 % 0.00 in
08:43 74.8 °F 72.7 °F 30.03 in NNW 2.0 mph 6.0 mph 93 % 0.00 in
08:48 75.0 °F 72.5 °F 30.03 in NNW 3.0 mph 6.0 mph 92 % 0.00 in
08:49 75.0 °F 72.5 °F 30.03 in North 5.0 mph 6.0 mph 92 % 0.00 in
08:55 74.8 °F 72.0 °F 30.03 in NNW 4.0 mph 6.0 mph 91 % 0.00 in
09:00 74.8 °F 72.0 °F 30.03 in NNE 5.0 mph 7.0 mph 91 % 0.00 in
09:05 75.0 °F 72.1 °F 30.03 in North 3.0 mph 9.0 mph 91 % 0.00 in
09:10 75.2 °F 72.1 °F 30.04 in NNW 2.0 mph 9.0 mph 90 % 0.00 in
09:13 75.4 °F 72.3 °F 30.03 in NNW 6.0 mph 9.0 mph 90 % 0.00 in
09:18 75.4 °F 72.3 °F 30.03 in NW 2.0 mph 8.0 mph 90 % 0.00 in
09:23 75.6 °F 72.5 °F 30.03 in NE 6.0 mph 8.0 mph 90 % 0.00 in
09:28 76.1 °F 72.9 °F 30.02 in West 2.0 mph 9.0 mph 90 % 0.00 in
09:33 76.5 °F 72.7 °F 30.03 in NW 2.0 mph 9.0 mph 88 % 0.00 in
09:38 76.8 °F 73.0 °F 30.02 in NNW 1.0 mph 9.0 mph 88 % 0.00 in
09:43 77.0 °F 72.9 °F 30.02 in North 2.0 mph 9.0 mph 87 % 0.00 in
09:48 77.2 °F 73.0 °F 30.03 in NW 2.0 mph 9.0 mph 87 % 0.00 in
09:53 77.5 °F 73.0 °F 30.03 in NE 2.0 mph 8.0 mph 86 % 0.00 in
09:58 77.5 °F 73.4 °F 30.02 in ENE 1.0 mph 7.0 mph 87 % 0.00 in
10:03 77.5 °F 73.0 °F 30.02 in NNW 3.0 mph 7.0 mph 86 % 0.00 in
10:08 77.7 °F 73.2 °F 30.02 in ENE 1.0 mph 7.0 mph 86 % 0.00 in
10:13 78.1 °F 73.6 °F 30.02 in North 5.0 mph 7.0 mph 86 % 0.00 in
10:19 78.3 °F 73.8 °F 30.02 in NNE 3.0 mph 9.0 mph 86 % 0.00 in
10:24 79.3 °F 74.5 °F 30.02 in Calm   9.0 mph 85 % 0.00 in
10:29 80.4 °F 74.8 °F 30.02 in ENE 1.0 mph 9.0 mph 83 % 0.00 in
10:34 81.1 °F 75.2 °F 30.02 in NW 7.0 mph 7.0 mph 82 % 0.00 in
10:39 81.7 °F 75.6 °F 30.02 in East 2.0 mph 7.0 mph 82 % 0.00 in
10:44 82.0 °F 75.2 °F 30.02 in NW 2.0 mph 8.0 mph 80 % 0.00 in
10:49 82.6 °F 75.4 °F 30.02 in WNW 1.0 mph 8.0 mph 79 % 0.00 in
10:54 83.1 °F 75.9 °F 30.02 in NE 2.0 mph 8.0 mph 79 % 0.00 in
10:59 83.7 °F 76.1 °F 30.02 in ENE 2.0 mph 8.0 mph 78 % 0.00 in
11:04 83.8 °F 76.3 °F 30.03 in NNW 2.0 mph 8.0 mph 78 % 0.00 in
11:09 84.0 °F 76.1 °F 30.02 in SE 4.0 mph 8.0 mph 77 % 0.00 in
11:14 84.0 °F 76.1 °F 30.03 in North 3.0 mph 8.0 mph 77 % 0.00 in
11:19 84.4 °F 76.5 °F 30.03 in NE 2.0 mph 8.0 mph 77 % 0.00 in
11:24 84.6 °F 76.1 °F 30.03 in NNW 2.0 mph 8.0 mph 76 % 0.00 in
11:29 84.4 °F 75.9 °F 30.02 in SSE 4.0 mph 8.0 mph 76 % 0.00 in
11:34 84.2 °F 75.7 °F 30.02 in NW 1.0 mph 8.0 mph 76 % 0.00 in
11:39 84.4 °F 75.9 °F 30.02 in ESE 1.0 mph 8.0 mph 76 % 0.00 in
11:44 84.7 °F 76.3 °F 30.01 in ENE 5.0 mph 8.0 mph 76 % 0.00 in
11:49 85.5 °F 77.0 °F 30.01 in ESE 5.0 mph 8.0 mph 76 % 0.00 in
11:54 85.5 °F 75.7 °F 30.01 in NW 1.0 mph 7.0 mph 73 % 0.00 in
11:59 85.3 °F 76.8 °F 30.01 in NE 1.0 mph 8.0 mph 76 % 0.00 in
12:04 85.8 °F 76.1 °F 30.01 in NNW 3.0 mph 8.0 mph 73 % 0.00 in
12:09 86.4 °F 77.0 °F 30.01 in Calm   8.0 mph 74 % 0.00 in
12:14 87.3 °F 76.6 °F 30.01 in NW 2.0 mph 7.0 mph 71 % 0.00 in
12:19 87.1 °F 76.1 °F 30.01 in NW 2.0 mph 6.0 mph 70 % 0.00 in
12:24 87.3 °F 76.3 °F 30.01 in NNW 4.0 mph 5.0 mph 70 % 0.00 in
12:29 87.6 °F 76.1 °F 30.00 in Calm   5.0 mph 69 % 0.00 in
12:34 88.5 °F 76.6 °F 30.00 in WNW 1.0 mph 5.0 mph 68 % 0.00 in
12:39 88.0 °F 75.6 °F 30.00 in Calm   9.0 mph 67 % 0.00 in
12:44 87.3 °F 75.4 °F 30.00 in ENE 1.0 mph 9.0 mph 68 % 0.00 in
12:49 86.9 °F 75.6 °F 30.00 in NW 4.0 mph 9.0 mph 69 % 0.00 in
12:54 86.7 °F 75.7 °F 30.00 in NNE 1.0 mph 6.0 mph 70 % 0.00 in
12:59 86.7 °F 75.7 °F 30.00 in Calm   6.0 mph 70 % 0.00 in
13:04 87.6 °F 77.5 °F 29.99 in NNW 2.0 mph 6.0 mph 72 % 0.00 in
13:09 88.2 °F 76.3 °F 29.99 in NNW 3.0 mph 6.0 mph 68 % 0.00 in
13:14 87.6 °F 76.6 °F 29.99 in NNE 2.0 mph 6.0 mph 70 % 0.00 in
13:19 86.5 °F 75.6 °F 29.99 in NNW 7.0 mph 7.0 mph 70 % 0.00 in
13:24 85.5 °F 75.7 °F 29.98 in NW 8.0 mph 10.0 mph 73 % 0.00 in
13:29 84.6 °F 75.4 °F 29.98 in NNW 6.0 mph 13.0 mph 74 % 0.00 in
13:34 83.7 °F 75.2 °F 29.98 in WNW 4.0 mph 13.0 mph 76 % 0.00 in
13:35 83.5 °F 75.0 °F 29.98 in NNW 8.0 mph 13.0 mph 76 % 0.00 in
13:41 82.8 °F 75.6 °F 29.98 in NNW 3.0 mph 13.0 mph 79 % 0.00 in
13:46 82.8 °F 75.2 °F 29.98 in North 7.0 mph 12.0 mph 78 % 0.00 in
13:51 82.8 °F 75.9 °F 29.97 in NNW 3.0 mph 12.0 mph 80 % 0.00 in
13:56 82.9 °F 76.8 °F 29.96 in NNW 7.0 mph 11.0 mph 82 % 0.00 in
14:01 83.7 °F 76.8 °F 29.96 in West 5.0 mph 11.0 mph 80 % 0.00 in
14:06 84.6 °F 77.0 °F 29.96 in North 4.0 mph 11.0 mph 78 % 0.00 in
14:11 85.1 °F 77.0 °F 29.96 in North 5.0 mph 12.0 mph 77 % 0.00 in
14:16 85.5 °F 76.6 °F 29.96 in NW 8.0 mph 12.0 mph 75 % 0.00 in
14:21 85.5 °F 76.3 °F 29.95 in North 3.0 mph 13.0 mph 74 % 0.00 in
14:26 86.2 °F 76.5 °F 29.95 in NNE 9.0 mph 13.0 mph 73 % 0.00 in
14:31 85.6 °F 75.9 °F 29.96 in NNE 3.0 mph 13.0 mph 73 % 0.00 in
14:36 84.9 °F 76.1 °F 29.96 in NNW 5.0 mph 11.0 mph 75 % 0.00 in
14:41 84.7 °F 76.3 °F 29.96 in NE 2.0 mph 11.0 mph 76 % 0.00 in
14:46 84.4 °F 75.9 °F 29.96 in WNW 1.0 mph 11.0 mph 76 % 0.00 in
14:51 83.7 °F 76.1 °F 29.97 in South 1.0 mph 8.0 mph 78 % 0.00 in
14:56 82.9 °F 76.1 °F 29.97 in SE 5.0 mph 9.0 mph 80 % 0.00 in
15:01 82.2 °F 76.1 °F 29.97 in NE 1.0 mph 10.0 mph 82 % 0.00 in
15:06 82.8 °F 76.6 °F 29.97 in ENE 3.0 mph 10.0 mph 82 % 0.00 in
15:11 82.9 °F 75.7 °F 29.98 in NNW 1.0 mph 10.0 mph 79 % 0.00 in
15:16 83.1 °F 75.9 °F 29.98 in WNW 3.0 mph 8.0 mph 79 % 0.00 in
15:21 83.3 °F 76.1 °F 29.98 in NW 4.0 mph 8.0 mph 79 % 0.00 in
15:26 83.5 °F 75.9 °F 29.98 in NNE 4.0 mph 8.0 mph 78 % 0.00 in
15:31 83.8 °F 75.9 °F 29.99 in NNE 4.0 mph 7.0 mph 77 % 0.00 in
15:36 83.7 °F 76.1 °F 29.99 in NE 3.0 mph 7.0 mph 78 % 0.00 in
15:41 82.8 °F 75.9 °F 30.00 in NW 4.0 mph 12.0 mph 80 % 0.00 in
15:46 81.9 °F 75.7 °F 30.01 in NW 3.0 mph 12.0 mph 82 % 0.00 in
15:51 81.9 °F 75.4 °F 30.00 in NNW 3.0 mph 12.0 mph 81 % 0.00 in
15:56 81.3 °F 74.5 °F 30.01 in NNW 1.0 mph 12.0 mph 80 % 0.00 in
16:01 79.9 °F 73.9 °F 30.01 in NW 4.0 mph 12.0 mph 82 % 0.00 in
16:06 79.2 °F 73.9 °F 30.02 in NNW 2.0 mph 11.0 mph 84 % 0.00 in
16:12 78.4 °F 72.9 °F 30.01 in North 4.0 mph 11.0 mph 83 % 0.00 in
16:17 78.1 °F 72.9 °F 30.01 in NNW 3.0 mph 9.0 mph 84 % 0.00 in
16:22 77.7 °F 72.9 °F 29.99 in NW 1.0 mph 9.0 mph 85 % 0.00 in
16:27 77.7 °F 72.9 °F 29.99 in WNW 5.0 mph 10.0 mph 85 % 0.00 in
16:32 77.4 °F 72.5 °F 29.98 in NNE 6.0 mph 10.0 mph 85 % 0.00 in
16:37 77.2 °F 72.3 °F 29.98 in North 4.0 mph 12.0 mph 85 % 0.00 in
16:42 77.0 °F 72.5 °F 29.97 in West 6.0 mph 12.0 mph 86 % 0.00 in
16:47 77.2 °F 72.7 °F 29.97 in NNE 2.0 mph 12.0 mph 86 % 0.00 in
16:52 77.4 °F 72.9 °F 29.97 in NE 2.0 mph 12.0 mph 86 % 0.00 in
16:57 77.5 °F 72.7 °F 29.96 in South 4.0 mph 12.0 mph 85 % 0.00 in
17:02 77.9 °F 72.7 °F 29.96 in NE 3.0 mph 10.0 mph 84 % 0.00 in
17:07 77.7 °F 72.5 °F 29.95 in NE 4.0 mph 12.0 mph 84 % 0.00 in
17:12 77.7 °F 72.5 °F 29.94 in NNW 7.0 mph 12.0 mph 84 % 0.00 in
17:17 77.7 °F 72.5 °F 29.96 in NNE 7.0 mph 13.0 mph 84 % 0.00 in
17:22 77.7 °F 72.1 °F 29.97 in NW 2.0 mph 13.0 mph 83 % 0.00 in
17:27 77.9 °F 72.3 °F 29.97 in NNW 7.0 mph 13.0 mph 83 % 0.00 in
17:32 78.1 °F 72.1 °F 29.98 in East 9.0 mph 12.0 mph 82 % 0.00 in
17:37 78.1 °F 72.1 °F 29.97 in ENE 6.0 mph 12.0 mph 82 % 0.00 in
17:42 78.1 °F 72.1 °F 29.97 in SE 1.0 mph 12.0 mph 82 % 0.00 in
17:47 78.3 °F 72.3 °F 29.97 in East 2.0 mph 10.0 mph 82 % 0.00 in
17:52 78.3 °F 72.3 °F 29.96 in NNW 3.0 mph 9.0 mph 82 % 0.00 in
17:57 78.1 °F 72.1 °F 29.96 in North 2.0 mph 9.0 mph 82 % 0.00 in
18:02 78.1 °F 72.1 °F 29.96 in NNE 2.0 mph 10.0 mph 82 % 0.00 in
18:08 78.1 °F 72.1 °F 29.97 in NNE 3.0 mph 10.0 mph 82 % 0.00 in
18:13 77.9 °F 72.0 °F 29.98 in East 3.0 mph 10.0 mph 82 % 0.00 in
18:18 77.7 °F 71.8 °F 29.98 in NE 6.0 mph 9.0 mph 82 % 0.00 in
18:23 77.7 °F 71.8 °F 29.98 in North 2.0 mph 9.0 mph 82 % 0.00 in
18:27 77.5 °F 71.6 °F 29.97 in NNW 1.0 mph 7.0 mph 82 % 0.00 in
18:33 77.5 °F 71.6 °F 29.95 in NW 2.0 mph 7.0 mph 82 % 0.00 in
18:38 77.5 °F 71.6 °F 29.95 in NW 2.0 mph 9.0 mph 82 % 0.00 in
18:42 77.5 °F 71.6 °F 29.97 in NW 1.0 mph 10.0 mph 82 % 0.00 in
18:47 77.5 °F 71.6 °F 29.97 in NNW 2.0 mph 10.0 mph 82 % 0.00 in
18:53 77.5 °F 71.6 °F 29.98 in North 1.0 mph 10.0 mph 82 % 0.00 in
18:58 77.4 °F 71.4 °F 29.98 in Calm   6.0 mph 82 % 0.00 in
19:03 77.2 °F 71.2 °F 29.97 in NNW 2.0 mph 7.0 mph 82 % 0.00 in
19:08 77.2 °F 71.2 °F 29.97 in ENE 3.0 mph 7.0 mph 82 % 0.00 in
19:13 77.0 °F 71.4 °F 29.98 in SSW 1.0 mph 8.0 mph 83 % 0.00 in
19:18 76.8 °F 71.2 °F 29.98 in East 3.0 mph 8.0 mph 83 % 0.00 in
19:23 76.8 °F 71.2 °F 29.99 in NNE 1.0 mph 8.0 mph 83 % 0.00 in
19:28 76.8 °F 71.2 °F 29.99 in Calm   8.0 mph 83 % 0.00 in
19:33 76.6 °F 71.1 °F 29.99 in ESE 2.0 mph 8.0 mph 83 % 0.00 in
19:38 76.6 °F 71.1 °F 29.98 in NNW 4.0 mph 8.0 mph 83 % 0.00 in
19:43 76.6 °F 71.1 °F 29.98 in NNW 3.0 mph 6.0 mph 83 % 0.00 in
19:48 76.5 °F 70.9 °F 29.99 in North 1.0 mph 6.0 mph 83 % 0.00 in
19:53 76.5 °F 71.2 °F 29.99 in ESE 3.0 mph 6.0 mph 84 % 0.00 in
19:58 76.5 °F 71.2 °F 30.00 in Calm   4.0 mph 84 % 0.00 in
20:03 76.5 °F 71.2 °F 30.00 in ENE 1.0 mph 4.0 mph 84 % 0.00 in
20:08 76.3 °F 71.1 °F 30.00 in North 1.0 mph 4.0 mph 84 % 0.00 in
20:13 76.3 °F 71.1 °F 30.00 in Calm   4.0 mph 84 % 0.00 in
20:18 76.3 °F 71.1 °F 30.00 in North 1.0 mph 4.0 mph 84 % 0.00 in
20:23 76.3 °F 71.1 °F 30.01 in WNW 1.0 mph 4.0 mph 84 % 0.00 in
20:28 76.3 °F 71.4 °F 30.01 in Calm   4.0 mph 85 % 0.00 in
20:33 76.1 °F 71.2 °F 30.01 in Calm   4.0 mph 85 % 0.00 in
20:38 76.1 °F 71.2 °F 30.01 in NW 2.0 mph 3.0 mph 85 % 0.00 in
20:43 76.1 °F 71.2 °F 30.01 in East 2.0 mph 3.0 mph 85 % 0.00 in
20:48 76.1 °F 71.2 °F 30.02 in ESE 2.0 mph 4.0 mph 85 % 0.00 in
20:53 75.9 °F 71.1 °F 30.03 in ENE 2.0 mph 4.0 mph 85 % 0.00 in
20:58 75.9 °F 71.4 °F 30.03 in East 1.0 mph 4.0 mph 86 % 0.00 in
21:03 75.7 °F 71.2 °F 30.03 in Calm   3.0 mph 86 % 0.00 in
21:08 75.7 °F 71.6 °F 30.02 in Calm   3.0 mph 87 % 0.00 in
21:13 75.6 °F 71.8 °F 30.01 in NNE 2.0 mph 3.0 mph 88 % 0.00 in
21:18 75.4 °F 71.6 °F 30.01 in Calm   3.0 mph 88 % 0.00 in
21:23 75.0 °F 71.6 °F 30.01 in North 1.0 mph 2.0 mph 89 % 0.00 in
21:28 74.8 °F 71.8 °F 30.01 in NNW 1.0 mph 2.0 mph 90 % 0.00 in
21:33 74.7 °F 71.6 °F 30.01 in NNW 1.0 mph 3.0 mph 90 % 0.00 in
21:38 74.5 °F 71.6 °F 30.00 in NW 3.0 mph 3.0 mph 91 % 0.00 in
21:43 74.5 °F 71.6 °F 30.01 in NW 2.0 mph 6.0 mph 91 % 0.00 in
21:48 74.1 °F 71.6 °F 30.01 in NNE 3.0 mph 6.0 mph 92 % 0.00 in
21:53 73.9 °F 71.4 °F 30.00 in NW 2.0 mph 8.0 mph 92 % 0.00 in
21:58 73.9 °F 71.4 °F 30.00 in Calm   8.0 mph 92 % 0.00 in
22:03 73.8 °F 71.2 °F 30.00 in NNE 2.0 mph 8.0 mph 92 % 0.00 in
22:08 73.8 °F 71.2 °F 30.00 in North 2.0 mph 8.0 mph 92 % 0.00 in
22:13 73.6 °F 71.1 °F 30.00 in NNE 2.0 mph 8.0 mph 92 % 0.00 in
22:18 73.6 °F 71.1 °F 30.01 in NNW 2.0 mph 7.0 mph 92 % 0.00 in
22:23 73.4 °F 70.5 °F 30.01 in NNW 4.0 mph 11.0 mph 91 % 0.00 in
22:28 73.4 °F 70.5 °F 30.02 in East 1.0 mph 11.0 mph 91 % 0.00 in
22:33 73.2 °F 70.5 °F 30.02 in SE 2.0 mph 11.0 mph 91 % 0.00 in
22:38 73.2 °F 70.2 °F 30.02 in ESE 4.0 mph 7.0 mph 90 % 0.00 in
22:43 73.2 °F 70.2 °F 30.02 in NNW 2.0 mph 7.0 mph 90 % 0.00 in
22:48 73.4 °F 70.3 °F 30.02 in Calm   11.0 mph 90 % 0.00 in
22:53 73.4 °F 70.3 °F 30.02 in ESE 1.0 mph 11.0 mph 90 % 0.00 in
22:58 73.4 °F 70.3 °F 30.02 in ENE 5.0 mph 11.0 mph 90 % 0.00 in
23:03 73.2 °F 70.2 °F 30.03 in East 1.0 mph 7.0 mph 90 % 0.00 in
23:08 73.2 °F 70.2 °F 30.03 in East 1.0 mph 6.0 mph 90 % 0.00 in
23:13 73.2 °F 70.5 °F 30.03 in East 2.0 mph 6.0 mph 91 % 0.00 in
23:18 73.2 °F 70.5 °F 30.03 in Calm   4.0 mph 91 % 0.00 in
23:23 73.0 °F 70.3 °F 30.04 in Calm   4.0 mph 91 % 0.00 in
23:28 73.0 °F 70.3 °F 30.04 in Calm   4.0 mph 91 % 0.00 in
23:34 73.0 °F 70.5 °F 30.03 in ENE 1.0 mph 3.0 mph 92 % 0.00 in
23:39 72.9 °F 70.3 °F 30.03 in NNW 1.0 mph 4.0 mph 92 % 0.00 in
23:44 72.9 °F 70.3 °F 30.03 in Calm   5.0 mph 92 % 0.00 in
23:49 72.9 °F 70.3 °F 30.03 in Calm   5.0 mph 92 % 0.00 in
23:54 72.7 °F 70.5 °F 30.03 in Calm   5.0 mph 93 % 0.00 in
23:59 72.7 °F 70.5 °F 30.03 in Calm   4.0 mph 93 % 0.00 in
Spring, Texas: Villages of Bridgestone
Compliments of Weather Underground - 2.75 mb

Script developed by  Jim McMurry - jmcmurry@mwt.net Adapted for the template by  Wim van der Kuil - Leuven-Template.eu

You find our weather info also at:

UK Metoffice

WeatherCloud

Weather Underground

Mid-South Weather Network

AWEKAS

Citizen Weather Observer Program (CWOP)

HAMweather, WeatherForYou, PWS Weather

Equipment we use:

Weather-station
Davis Vantage Vue

Weather-program
Meteohub

Weather-server
Debian 7.9 x86 (Guest)

Provider
DreamHost

Davis Vantage Vue

Meteohub

Debian 7.9 x86 (Guest)

DreamHost